Time;durP1;ratioP1;P1;durP2;ratioP2;P2;SDS_P1;SDS_P2;PMS_P1;PMS_P2;Temp;Humidity;BMP_temperature;BMP_pressure;BME280_temperature;BME280_humidity;BME280_pressure;Samples;Min_cycle;Max_cycle;Signal;HPM_P1;HPM_P2
2022/05/22 00:04:13;;;;;;;7.13;3.33;;;17.90;98.00;;;;;;4873365;24;20067;-86
2022/05/22 00:06:44;;;;;;;8.43;3.08;;;21.40;99.60;;;;;;4888378;24;20530;-95
2022/05/22 00:09:12;;;;;;;10.45;3.35;;;18.00;98.30;;;;;;4816068;29;20049;-95
2022/05/22 00:11:50;;;;;;;8.15;2.92;;;17.90;98.50;;;;;;4816267;29;20175;-92
2022/05/22 00:14:25;;;;;;;7.70;3.25;;;17.90;97.80;;;;;;4816522;29;20049;-95
2022/05/22 00:17:06;;;;;;;11.68;3.00;;;17.80;98.20;;;;;;4830651;29;20034;-96
2022/05/22 00:19:47;;;;;;;6.60;2.67;;;17.90;98.00;;;;;;4815213;29;20026;-95
2022/05/22 00:22:13;;;;;;;10.50;3.63;;;17.90;98.10;;;;;;4815900;29;20034;-89
2022/05/22 00:24:52;;;;;;;8.18;3.50;;;18.00;98.60;;;;;;4830883;29;20112;-91
2022/05/22 00:27:22;;;;;;;7.45;3.38;;;18.10;98.90;;;;;;4815489;29;20023;-95
2022/05/22 00:30:04;;;;;;;8.85;3.90;;;17.90;97.90;;;;;;4815875;29;20113;-93
2022/05/22 00:32:35;;;;;;;6.72;3.35;;;17.20;98.00;;;;;;4816444;29;20041;-94
2022/05/22 00:35:06;;;;;;;9.10;3.58;;;18.00;97.90;;;;;;4816765;29;20061;-96
2022/05/22 00:37:40;;;;;;;8.02;3.33;;;18.00;98.00;;;;;;4822365;29;20362;-93
2022/05/22 00:40:14;;;;;;;7.07;3.03;;;18.30;98.00;;;;;;4832483;29;20045;-92
2022/05/22 00:42:46;;;;;;;7.50;2.97;;;18.20;99.00;;;;;;4845971;29;20218;-93
2022/05/22 00:45:21;;;;;;;8.18;3.13;;;19.50;98.30;;;;;;4833845;29;20058;-90
2022/05/22 00:48:02;;;;;;;6.90;3.30;;;19.90;98.10;;;;;;4824548;29;20030;-93
2022/05/22 00:50:33;;;;;;;6.50;3.72;;;18.20;97.20;;;;;;4825371;29;20402;-88
2022/05/22 00:53:03;;;;;;;7.32;3.45;;;18.20;97.90;;;;;;4824566;29;20063;-93
2022/05/22 00:55:34;;;;;;;8.77;4.68;;;18.40;98.10;;;;;;4826028;29;20102;-91
2022/05/22 00:58:29;;;;;;;11.70;4.97;;;18.30;98.30;;;;;;4819041;29;20522;-94
2022/05/22 01:01:07;;;;;;;11.88;4.70;;;18.20;98.00;;;;;;4815887;29;20030;-94
2022/05/22 01:03:42;;;;;;;7.82;4.43;;;18.20;98.60;;;;;;4831782;29;20334;-89
2022/05/22 01:06:12;;;;;;;8.10;4.30;;;18.20;98.30;;;;;;4814151;29;20357;-88
2022/05/22 01:08:47;;;;;;;11.13;4.63;;;18.20;98.00;;;;;;4815059;29;20525;-94
2022/05/22 01:11:25;;;;;;;10.45;4.93;;;18.10;98.50;;;;;;4831628;29;20029;-93
2022/05/22 01:14:12;;;;;;;9.40;3.97;;;18.20;98.50;;;;;;4816177;29;20061;-91
2022/05/22 01:16:53;;;;;;;10.02;6.18;;;18.50;98.50;;;;;;4816571;29;20282;-91
2022/05/22 01:19:23;;;;;;;8.57;4.93;;;18.00;98.60;;;;;;4824237;23;20236;-89
2022/05/22 01:22:30;;;;;;;10.68;4.90;;;18.10;98.40;;;;;;4829588;29;20065;-90
2022/05/22 01:25:01;;;;;;;12.13;4.45;;;18.20;98.40;;;;;;4811534;29;20234;-96
2022/05/22 01:27:37;;;;;;;8.70;4.68;;;18.10;99.30;;;;;;4831139;29;20034;-94
2022/05/22 01:30:25;;;;;;;9.93;4.95;;;18.10;98.60;;;;;;4814572;29;20033;-91
2022/05/22 01:32:50;;;;;;;9.65;4.60;;;18.10;98.50;;;;;;4813978;29;20178;-91
2022/05/22 01:35:19;;;;;;;14.13;4.32;;;16.70;98.20;;;;;;4814067;29;20093;-86
2022/05/22 01:37:46;;;;;;;13.15;4.93;;;18.20;98.50;;;;;;4813941;29;20034;-90
2022/05/22 01:40:13;;;;;;;11.80;5.45;;;18.20;98.50;;;;;;4829817;29;20030;-88
2022/05/22 01:42:50;;;;;;;9.60;4.85;;;18.10;98.80;;;;;;4813586;29;20386;-90
2022/05/22 01:45:40;;;;;;;10.43;4.68;;;18.20;98.40;;;;;;4814157;29;20503;-90
2022/05/22 01:48:12;;;;;;;9.70;5.07;;;18.10;98.60;;;;;;4812876;29;20337;-94
2022/05/22 01:50:39;;;;;;;11.10;5.80;;;16.10;98.60;;;;;;4828041;29;20314;-91
2022/05/22 01:53:08;;;;;;;11.82;5.13;;;18.10;99.00;;;;;;4829102;29;20048;-89
2022/05/22 01:55:34;;;;;;;9.35;4.70;;;18.00;99.10;;;;;;4813444;29;20105;-91
2022/05/22 01:58:00;;;;;;;8.82;3.47;;;18.10;99.00;;;;;;4815746;29;20121;-89
2022/05/22 02:00:46;;;;;;;6.07;3.17;;;18.10;98.80;;;;;;4815609;29;20344;-88
2022/05/22 02:03:12;;;;;;;12.35;4.72;;;18.10;98.50;;;;;;4832068;29;20125;-90
2022/05/22 02:05:37;;;;;;;9.98;4.05;;;18.10;98.70;;;;;;4816357;29;20117;-91
2022/05/22 02:08:19;;;;;;;35.53;14.18;;;18.20;98.60;;;;;;4860532;23;20091;-89
2022/05/22 02:10:47;;;;;;;30.35;12.68;;;18.20;98.70;;;;;;4834598;29;20376;-91
2022/05/22 02:13:24;;;;;;;26.17;9.70;;;18.30;98.90;;;;;;4834423;29;20398;-95
2022/05/22 02:15:51;;;;;;;17.85;9.02;;;18.30;98.90;;;;;;4834174;29;20567;-93
2022/05/22 02:18:18;;;;;;;10.95;5.32;;;18.30;99.00;;;;;;4833085;29;20049;-92
2022/05/22 02:20:59;;;;;;;14.30;3.83;;;18.40;99.10;;;;;;4833997;29;20033;-95
2022/05/22 02:23:25;;;;;;;5.82;2.63;;;;;;;;;;4835750;29;20029;-91
2022/05/22 02:26:03;;;;;;;7.15;2.90;;;18.40;99.00;;;;;;4834343;29;20128;-94
2022/05/22 02:42:13;;;;;;;7.65;2.42;;;18.40;99.30;;;;;;5633233;23;20130;-91
2022/05/22 02:44:38;;;;;;;7.80;3.95;;;18.50;99.70;;;;;;4830449;29;20026;-92
2022/05/22 02:49:32;;;;;;;10.35;5.57;;;18.40;98.60;;;;;;5037512;23;20069;-92
2022/05/22 02:52:18;;;;;;;9.40;4.90;;;18.40;98.80;;;;;;4852958;29;20150;-96
2022/05/22 02:54:46;;;;;;;12.75;4.82;;;;;;;;;;4837337;29;20037;-89
2022/05/22 03:00:43;;;;;;;8.32;3.63;;;18.30;99.00;;;;;;5301485;23;20130;-91
2022/05/22 03:03:40;;;;;;;8.80;4.45;;;18.30;99.80;;;;;;4835855;24;20192;-94
2022/05/22 03:08:52;;;;;;;11.65;4.38;;;18.40;99.60;;;;;;4829773;29;20041;-93
2022/05/22 03:11:24;;;;;;;7.82;3.97;;;18.40;99.10;;;;;;4812842;29;20030;-93
2022/05/22 03:13:56;;;;;;;7.35;4.05;;;18.40;99.90;;;;;;4814144;29;20469;-91
2022/05/22 03:16:32;;;;;;;7.90;4.40;;;18.30;99.20;;;;;;4815908;29;20045;-87
2022/05/22 03:18:58;;;;;;;11.27;4.75;;;18.30;99.90;;;;;;4830043;29;20110;-89
2022/05/22 03:21:32;;;;;;;10.43;4.47;;;18.30;99.90;;;;;;4806871;29;20638;-89
2022/05/22 03:24:00;;;;;;;9.27;4.88;;;17.00;99.80;;;;;;4811532;29;20241;-90
2022/05/22 03:26:32;;;;;;;13.13;5.30;;;18.10;99.90;;;;;;4825679;29;20037;-89
2022/05/22 03:29:07;;;;;;;10.18;4.70;;;18.00;99.90;;;;;;4825508;29;20328;-90
2022/05/22 03:31:48;;;;;;;15.52;5.43;;;18.00;99.90;;;;;;4825022;29;20124;-89
2022/05/22 03:34:17;;;;;;;11.88;4.95;;;17.90;99.90;;;;;;4824953;29;20133;-91
2022/05/22 03:36:52;;;;;;;11.02;5.28;;;17.80;99.90;;;;;;4831754;24;20217;-90
2022/05/22 03:39:36;;;;;;;17.02;5.45;;;17.70;99.90;;;;;;4826731;29;20329;-90
2022/05/22 04:12:29;;;;;;;12.50;6.10;;;18.40;99.90;;;;;;5846990;23;19910;-89
2022/05/22 04:16:01;;;;;;;11.02;5.03;;;17.80;99.90;;;;;;4835320;24;20046;-91
2022/05/22 04:25:11;;;;;;;8.20;4.63;;;16.10;99.90;;;;;;4830486;29;20054;-90
2022/05/22 05:31:54;;;;;;;9.95;5.00;;;17.50;99.90;;;;;;5289870;23;20065;-91
2022/05/22 06:09:20;;;;;;;5.82;2.92;;;14.40;99.90;;;;;;5617861;23;20064;-93
2022/05/22 06:30:20;;;;;;;15.73;3.08;;;17.50;99.90;;;;;;5687452;23;20053;-92
2022/05/22 06:36:41;;;;;;;6.95;2.67;;;18.00;99.90;;;;;;5009112;23;20478;-86
2022/05/22 06:47:05;;;;;;;6.25;3.05;;;18.10;99.90;;;;;;5175734;23;20035;31
2022/05/22 11:59:51;;;;;;;5.45;2.72;;;31.40;55.40;;;;;;5147561;24;20053;-87
2022/05/22 12:12:56;;;;;;;6.45;3.80;;;32.40;51.70;;;;;;5760561;23;20482;-90
2022/05/22 12:33:35;;;;;;;5.45;2.60;;;34.50;48.30;;;;;;4889207;23;20027;-89
2022/05/22 12:36:03;;;;;;;6.38;2.53;;;34.10;48.10;;;;;;4854014;23;20092;-89
2022/05/22 13:57:05;;;;;;;3.28;1.35;;;36.60;38.20;;;;;;5138059;23;20314;-91
2022/05/22 14:00:01;;;;;;;2.70;1.35;;;34.90;35.50;;;;;;4833420;29;20042;-87
2022/05/22 14:21:46;;;;;;;3.25;1.45;;;37.40;35.80;;;;;;5448451;23;20414;-90
2022/05/22 14:28:08;;;;;;;5.85;1.80;;;37.20;37.70;;;;;;4849100;29;20158;-91
2022/05/22 14:48:24;;;;;;;2.80;1.30;;;36.90;36.10;;;;;;5198533;23;20064;-88
2022/05/22 14:50:58;;;;;;;2.58;1.50;;;37.10;36.30;;;;;;4827970;29;20054;-87
2022/05/22 15:13:41;;;;;;;2.53;1.60;;;37.80;37.30;;;;;;5134475;23;20057;-93
2022/05/22 15:16:24;;;;;;;3.90;2.00;;;37.00;36.40;;;;;;4805326;29;20051;-91
2022/05/22 15:33:06;;;;;;;4.13;1.80;;;37.70;36.40;;;;;;4851321;23;20076;-90
2022/05/22 15:45:22;;;;;;;3.92;2.20;;;39.40;38.30;;;;;;4830740;29;20153;-90
2022/05/22 16:04:48;;;;;;;5.63;1.80;;;37.50;37.20;;;;;;5457756;23;20766;-91
2022/05/22 20:11:05;;;;;;;14.32;5.35;;;18.90;95.30;;;;;;4893307;29;20613;-90
